createdAt,value
2023-02-13T00:00:47.110Z,81.59
2023-02-13T00:01:47.101Z,81.70
2023-02-13T00:02:47.160Z,81.38
2023-02-13T00:03:47.115Z,81.84
2023-02-13T00:04:47.079Z,81.79
2023-02-13T00:05:47.050Z,81.70
2023-02-13T00:06:47.049Z,81.49
2023-02-13T00:07:47.034Z,81.59
2023-02-13T00:08:47.042Z,81.38
2023-02-13T00:09:47.032Z,81.43
2023-02-13T00:10:46.997Z,81.52
2023-02-13T00:11:46.987Z,81.08
2023-02-13T00:12:46.969Z,80.71
2023-02-13T00:13:46.964Z,81.12
2023-02-13T00:14:46.948Z,81.63
2023-02-13T00:15:47.045Z,81.73
2023-02-13T00:16:46.930Z,81.73
2023-02-13T00:17:46.937Z,81.52
2023-02-13T00:18:46.925Z,81.73
2023-02-13T00:19:46.890Z,81.36
2023-02-13T00:20:46.881Z,81.77
2023-02-13T00:21:46.907Z,81.98
2023-02-13T00:22:46.858Z,82.08
2023-02-13T00:23:46.879Z,81.57
2023-02-13T00:24:46.871Z,81.77
2023-02-13T00:25:46.829Z,82.08
2023-02-13T00:26:46.817Z,81.77
2023-02-13T00:27:46.830Z,81.67
2023-02-13T00:28:46.790Z,82.18
2023-02-13T00:29:46.802Z,81.73
2023-02-13T00:30:46.929Z,81.26
2023-02-13T00:31:46.801Z,81.22
2023-02-13T00:32:46.799Z,80.91
2023-02-13T00:33:46.764Z,80.71
2023-02-13T00:34:46.718Z,80.09
2023-02-13T00:35:46.713Z,80.30
2023-02-13T00:36:46.693Z,80.19
2023-02-13T00:37:46.696Z,80.30
2023-02-13T00:38:46.692Z,80.51
2023-02-13T00:39:46.692Z,80.40
2023-02-13T00:40:46.650Z,80.60
2023-02-13T00:41:46.660Z,80.81
2023-02-13T00:42:46.622Z,80.85
2023-02-13T00:43:46.623Z,81.36
2023-02-13T00:44:46.635Z,81.67
2023-02-13T00:45:46.592Z,81.77
2023-02-13T00:46:46.611Z,81.87
2023-02-13T00:47:46.572Z,81.77
2023-02-13T00:48:46.562Z,81.15
2023-02-13T00:49:46.562Z,81.15
2023-02-13T00:50:46.551Z,81.05
2023-02-13T00:51:46.522Z,81.15
2023-02-13T00:52:46.510Z,81.36
2023-02-13T00:53:46.501Z,81.15
2023-02-13T00:54:46.499Z,80.74
2023-02-13T00:55:46.483Z,80.64
2023-02-13T00:56:46.496Z,81.05
2023-02-13T00:57:46.462Z,80.95
2023-02-13T00:58:46.511Z,81.05
2023-02-13T00:59:46.434Z,81.12
2023-02-13T01:00:46.429Z,80.71
2023-02-13T01:01:46.494Z,80.71
2023-02-13T01:02:46.428Z,80.30
2023-02-13T01:03:46.456Z,80.09
2023-02-13T01:04:46.375Z,80.19
2023-02-13T01:05:46.372Z,79.99
2023-02-13T01:06:46.352Z,79.79
2023-02-13T01:07:46.371Z,79.58
2023-02-13T01:08:46.333Z,79.68
2023-02-13T01:09:46.323Z,79.89
2023-02-13T01:10:46.313Z,79.58
2023-02-13T01:11:46.314Z,79.38
2023-02-13T01:12:46.284Z,78.97
2023-02-13T01:13:46.297Z,78.76
2023-02-13T01:14:46.278Z,78.66
2023-02-13T01:15:46.301Z,78.80
2023-02-13T01:16:46.246Z,78.76
2023-02-13T01:17:46.248Z,78.76
2023-02-13T01:18:46.246Z,78.56
2023-02-13T01:19:46.214Z,78.45
2023-02-13T01:20:46.204Z,78.21
2023-02-13T01:21:46.194Z,77.94
2023-02-13T01:22:46.180Z,77.94
2023-02-13T01:23:46.167Z,78.15
2023-02-13T01:24:46.175Z,77.94
2023-02-13T01:25:46.152Z,77.73
2023-02-13T01:26:46.147Z,77.84
2023-02-13T01:27:46.117Z,77.84
2023-02-13T01:28:46.120Z,77.64
2023-02-13T01:29:46.128Z,77.64
2023-02-13T01:30:46.147Z,77.64
2023-02-13T01:31:46.194Z,78.05
2023-02-13T01:32:46.069Z,78.35
2023-02-13T01:33:46.069Z,78.56
2023-02-13T01:34:46.047Z,78.45
2023-02-13T01:35:46.064Z,78.15
2023-02-13T01:36:46.026Z,78.05
2023-02-13T01:37:46.007Z,78.05
2023-02-13T01:38:46.013Z,78.05
2023-02-13T01:39:45.998Z,78.25
2023-02-13T01:40:45.990Z,78.66
2023-02-13T01:41:45.993Z,78.45
2023-02-13T01:42:45.952Z,78.35
2023-02-13T01:43:45.942Z,77.94
2023-02-13T01:44:45.937Z,78.25
2023-02-13T01:45:45.930Z,78.35
2023-02-13T01:46:45.943Z,78.35
2023-02-13T01:47:45.944Z,78.25
2023-02-13T01:48:45.881Z,78.45
2023-02-13T01:49:45.869Z,78.56
2023-02-13T01:50:45.860Z,78.56
2023-02-13T01:51:45.850Z,78.56
2023-02-13T01:52:45.839Z,78.66
2023-02-13T01:53:45.888Z,78.76
2023-02-13T01:54:45.808Z,78.80
2023-02-13T01:55:45.799Z,78.97
2023-02-13T01:56:45.794Z,78.66
2023-02-13T01:57:45.779Z,78.76
2023-02-13T01:58:45.793Z,78.56
2023-02-13T01:59:45.752Z,78.80
2023-02-13T02:00:45.748Z,78.97
2023-02-13T02:01:45.886Z,78.80
2023-02-13T02:02:45.855Z,78.90
2023-02-13T02:03:45.708Z,79.00
2023-02-13T02:04:45.719Z,79.00
2023-02-13T02:05:45.690Z,79.00
2023-02-13T02:06:45.677Z,78.80
2023-02-13T02:07:45.667Z,78.76
2023-02-13T02:08:45.656Z,78.90
2023-02-13T02:09:45.670Z,78.86
2023-02-13T02:10:45.629Z,78.90
2023-02-13T02:11:45.627Z,79.00
2023-02-13T02:12:45.616Z,79.00
2023-02-13T02:13:45.602Z,79.21
2023-02-13T02:14:45.593Z,79.11
2023-02-13T02:15:45.657Z,79.31
2023-02-13T02:16:45.569Z,79.00
2023-02-13T02:17:45.553Z,79.11
2023-02-13T02:18:45.553Z,79.31
2023-02-13T02:19:45.532Z,79.31
2023-02-13T02:20:45.530Z,79.52
2023-02-13T02:21:45.535Z,79.41
2023-02-13T02:22:45.503Z,79.31
2023-02-13T02:23:45.513Z,79.41
2023-02-13T02:24:45.481Z,79.55
2023-02-13T02:25:45.462Z,79.96
2023-02-13T02:26:45.454Z,79.75
2023-02-13T02:27:45.464Z,79.75
2023-02-13T02:28:45.438Z,80.17
2023-02-13T02:29:45.440Z,79.86
2023-02-13T02:30:45.452Z,79.86
2023-02-13T02:31:45.443Z,79.96
2023-02-13T02:32:45.423Z,79.96
2023-02-13T02:33:45.378Z,79.52
2023-02-13T02:34:45.385Z,79.62
2023-02-13T02:35:45.356Z,79.41
2023-02-13T02:36:45.349Z,79.31
2023-02-13T02:37:45.347Z,79.00
2023-02-13T02:38:45.351Z,78.86
2023-02-13T02:39:45.321Z,78.76
2023-02-13T02:40:45.296Z,78.80
2023-02-13T02:41:45.293Z,78.90
2023-02-13T02:42:45.284Z,79.11
2023-02-13T02:43:45.266Z,79.21
2023-02-13T02:44:45.284Z,79.21
2023-02-13T02:45:45.244Z,79.11
2023-02-13T02:46:45.261Z,79.21
2023-02-13T02:47:45.213Z,79.21
2023-02-13T02:48:45.202Z,79.21
2023-02-13T02:49:45.194Z,79.31
2023-02-13T02:50:45.211Z,79.55
2023-02-13T02:51:45.174Z,79.75
2023-02-13T02:52:45.182Z,79.96
2023-02-13T02:53:45.153Z,80.07
2023-02-13T02:54:45.130Z,79.96
2023-02-13T02:55:45.147Z,79.62
2023-02-13T02:56:45.123Z,79.72
2023-02-13T02:57:45.099Z,79.52
2023-02-13T02:58:45.088Z,79.45
2023-02-13T02:59:45.081Z,79.66
2023-02-13T03:00:45.099Z,79.72
2023-02-13T03:01:45.067Z,79.41
2023-02-13T03:02:45.047Z,79.21
2023-02-13T03:03:45.183Z,79.35
2023-02-13T03:04:45.019Z,79.45
2023-02-13T03:05:45.008Z,79.55
2023-02-13T03:06:45.033Z,79.75
2023-02-13T03:07:44.988Z,79.45
2023-02-13T03:08:44.980Z,79.66
2023-02-13T03:09:44.958Z,79.31
2023-02-13T03:10:44.955Z,79.11
2023-02-13T03:11:44.939Z,79.35
2023-02-13T03:12:44.950Z,79.31
2023-02-13T03:13:44.917Z,79.11
2023-02-13T03:14:44.951Z,78.90
2023-02-13T03:15:44.889Z,78.90
2023-02-13T03:16:44.924Z,78.90
2023-02-13T03:17:44.867Z,78.80
2023-02-13T03:18:44.877Z,78.94
2023-02-13T03:19:44.846Z,79.24
2023-02-13T03:20:44.839Z,79.24
2023-02-13T03:21:44.818Z,79.00
2023-02-13T03:22:44.817Z,78.94
2023-02-13T03:23:44.829Z,79.24
2023-02-13T03:24:44.797Z,79.14
2023-02-13T03:25:44.786Z,79.04
2023-02-13T03:26:44.767Z,79.14
2023-02-13T03:27:44.801Z,79.14
2023-02-13T03:28:44.772Z,78.94
2023-02-13T03:29:44.756Z,78.94
2023-02-13T03:30:44.793Z,78.74
2023-02-13T03:31:44.748Z,78.74
2023-02-13T03:32:44.697Z,78.74
2023-02-13T03:33:44.690Z,78.83
2023-02-13T03:34:44.679Z,78.83
2023-02-13T03:35:44.688Z,78.53
2023-02-13T03:36:44.656Z,78.74
2023-02-13T03:37:44.645Z,78.53
2023-02-13T03:38:44.640Z,78.87
2023-02-13T03:39:44.628Z,78.87
2023-02-13T03:40:44.615Z,78.77
2023-02-13T03:41:44.617Z,79.18
2023-02-13T03:42:44.586Z,79.38
2023-02-13T03:43:44.585Z,79.59
2023-02-13T03:44:44.576Z,79.83
2023-02-13T03:45:44.579Z,80.04
2023-02-13T03:46:44.546Z,80.65
2023-02-13T03:47:44.548Z,80.45
2023-02-13T03:48:44.524Z,80.35
2023-02-13T03:49:44.496Z,80.24
2023-02-13T03:50:44.529Z,80.14
2023-02-13T03:51:44.491Z,80.24
2023-02-13T03:52:44.502Z,80.45
2023-02-13T03:53:44.455Z,80.35
2023-02-13T03:54:44.446Z,80.24
2023-02-13T03:55:44.437Z,80.18
2023-02-13T03:56:44.427Z,80.28
2023-02-13T03:57:44.410Z,80.49
2023-02-13T03:58:44.416Z,80.79
2023-02-13T03:59:44.392Z,80.90
2023-02-13T04:00:44.404Z,81.14
2023-02-13T04:01:44.366Z,81.55
2023-02-13T04:02:44.369Z,81.76
2023-02-13T04:03:44.364Z,81.76
2023-02-13T04:04:44.334Z,81.45
2023-02-13T04:05:44.314Z,81.48
2023-02-13T04:06:44.306Z,81.79
2023-02-13T04:07:44.296Z,81.90
2023-02-13T04:08:44.287Z,81.28
2023-02-13T04:09:44.286Z,81.18
2023-02-13T04:10:44.254Z,80.80
2023-02-13T04:11:44.251Z,80.39
2023-02-13T04:12:44.247Z,80.33
2023-02-13T04:13:44.224Z,80.33
2023-02-13T04:14:44.234Z,80.05
2023-02-13T04:15:44.204Z,80.16
2023-02-13T04:16:44.270Z,80.51
2023-02-13T04:17:44.187Z,81.02
2023-02-13T04:18:44.182Z,81.23
2023-02-13T04:19:44.154Z,81.23
2023-02-13T04:20:44.182Z,81.33
2023-02-13T04:21:44.134Z,81.47
2023-02-13T04:22:51.174Z,81.37
2023-02-13T04:23:44.103Z,81.16
2023-02-13T04:24:44.103Z,81.40
2023-02-13T04:25:44.099Z,81.61
2023-02-13T04:26:44.109Z,81.71
2023-02-13T04:27:44.184Z,81.85
2023-02-13T04:28:44.061Z,82.16
2023-02-13T04:29:44.036Z,82.57
2023-02-13T04:30:44.243Z,82.78
2023-02-13T04:31:44.111Z,82.57
2023-02-13T04:32:44.014Z,82.37
2023-02-13T04:33:44.008Z,82.71
2023-02-13T04:34:43.987Z,82.71
2023-02-13T04:35:43.976Z,82.71
2023-02-13T04:36:43.966Z,82.30
2023-02-13T04:37:43.967Z,82.61
2023-02-13T04:38:43.946Z,82.61
2023-02-13T04:39:43.927Z,82.55
2023-02-13T04:40:43.928Z,83.06
2023-02-13T04:41:43.910Z,82.86
2023-02-13T04:42:43.896Z,83.06
2023-02-13T04:43:43.907Z,83.48
2023-02-13T04:44:43.875Z,83.27
2023-02-13T04:45:43.916Z,83.06
2023-02-13T04:46:43.856Z,82.69
2023-02-13T04:47:43.852Z,83.00
2023-02-13T04:48:43.855Z,83.00
2023-02-13T04:49:43.823Z,82.89
2023-02-13T04:50:43.816Z,83.34
2023-02-13T04:51:43.809Z,83.04
2023-02-13T04:52:43.794Z,83.04
2023-02-13T04:53:43.781Z,83.65
2023-02-13T04:54:43.789Z,83.86
2023-02-13T04:55:43.756Z,83.55
2023-02-13T04:56:43.745Z,83.76
2023-02-13T04:57:43.735Z,83.65
2023-02-13T04:58:43.725Z,83.04
2023-02-13T04:59:43.707Z,82.76
2023-02-13T05:00:43.725Z,83.07
2023-02-13T05:01:43.788Z,82.97
2023-02-13T05:02:43.699Z,82.87
2023-02-13T05:03:43.669Z,83.63
2023-02-13T05:04:43.725Z,83.84
2023-02-13T05:05:43.649Z,84.15
2023-02-13T05:06:43.657Z,84.05
2023-02-13T05:07:43.626Z,83.32
2023-02-13T05:08:43.612Z,83.42
2023-02-13T05:09:43.603Z,83.63
2023-02-13T05:10:43.595Z,83.22
2023-02-13T05:11:43.585Z,83.11
2023-02-13T05:12:43.583Z,83.46
2023-02-13T05:13:43.559Z,84.19
2023-02-13T05:14:43.555Z,84.81
2023-02-13T05:15:43.659Z,85.22
2023-02-13T05:16:43.525Z,86.01
2023-02-13T05:17:43.534Z,86.63
2023-02-13T05:18:43.501Z,86.79
2023-02-13T05:19:43.482Z,86.69
2023-02-13T05:20:43.484Z,86.69
2023-02-13T05:21:43.494Z,86.28
2023-02-13T05:22:43.451Z,86.38
2023-02-13T05:23:43.462Z,86.38
2023-02-13T05:24:43.432Z,86.69
2023-02-13T05:25:43.422Z,86.79
2023-02-13T05:26:43.412Z,86.49
2023-02-13T05:27:43.400Z,86.28
2023-02-13T05:28:43.436Z,86.07
2023-02-13T05:29:43.401Z,86.69
2023-02-13T05:30:43.401Z,86.59
2023-02-13T05:31:43.430Z,86.38
2023-02-13T05:32:43.349Z,86.44
2023-02-13T05:33:43.332Z,86.24
2023-02-13T05:34:43.322Z,85.76
2023-02-13T05:35:43.322Z,85.76
2023-02-13T05:36:43.293Z,85.86
2023-02-13T05:37:43.296Z,85.86
2023-02-13T05:38:43.274Z,85.97
2023-02-13T05:39:43.272Z,85.76
2023-02-13T05:40:43.273Z,85.55
2023-02-13T05:41:43.252Z,85.80
2023-02-13T05:42:43.249Z,85.49
2023-02-13T05:43:43.225Z,85.08
2023-02-13T05:44:43.224Z,84.87
2023-02-13T05:45:43.201Z,84.77
2023-02-13T05:46:43.541Z,84.91
2023-02-13T05:47:43.181Z,85.02
2023-02-13T05:48:43.168Z,85.11
2023-02-13T05:49:43.158Z,85.32
2023-02-13T05:50:43.144Z,85.74
2023-02-13T05:51:43.149Z,85.94
2023-02-13T05:52:43.144Z,86.15
2023-02-13T05:53:43.111Z,86.05
2023-02-13T05:54:43.118Z,86.36
2023-02-13T05:55:43.082Z,86.36
2023-02-13T05:56:43.073Z,86.25
2023-02-13T05:57:43.066Z,86.25
2023-02-13T05:58:43.069Z,86.05
2023-02-13T05:59:43.050Z,86.15
2023-02-13T06:00:43.020Z,86.36
2023-02-13T06:01:43.020Z,86.05
2023-02-13T06:02:43.049Z,86.09
2023-02-13T06:03:43.032Z,85.78
2023-02-13T06:04:42.995Z,86.19
2023-02-13T06:05:42.969Z,86.19
2023-02-13T06:06:42.948Z,85.99
2023-02-13T06:07:42.948Z,85.88
2023-02-13T06:08:42.940Z,85.78
2023-02-13T06:09:42.946Z,85.57
2023-02-13T06:10:45.183Z,85.57
2023-02-13T06:11:42.916Z,85.82
2023-02-13T06:12:42.886Z,85.99
2023-02-13T06:13:42.966Z,85.92
2023-02-13T06:14:42.856Z,86.02
2023-02-13T06:15:43.040Z,86.02
2023-02-13T06:16:42.852Z,86.23
2023-02-13T06:17:42.841Z,86.02
2023-02-13T06:18:42.817Z,85.71
2023-02-13T06:19:42.807Z,85.82
2023-02-13T06:20:42.845Z,86.02
2023-02-13T06:21:42.788Z,86.23
2023-02-13T06:22:42.765Z,86.02
2023-02-13T06:23:42.766Z,86.17
2023-02-13T06:24:42.754Z,86.27
2023-02-13T06:25:42.746Z,86.37
2023-02-13T06:26:42.764Z,86.47
2023-02-13T06:27:42.723Z,86.58
2023-02-13T06:28:42.793Z,86.37
2023-02-13T06:29:42.698Z,86.27
2023-02-13T06:30:42.735Z,86.58
2023-02-13T06:31:42.772Z,86.99
2023-02-13T06:32:42.656Z,86.58
2023-02-13T06:33:42.656Z,86.68
2023-02-13T06:34:42.636Z,86.89
2023-02-13T06:35:42.627Z,86.68
2023-02-13T06:36:42.615Z,86.47
2023-02-13T06:37:42.635Z,86.58
2023-02-13T06:38:42.595Z,86.68
2023-02-13T06:39:42.585Z,86.58
2023-02-13T06:40:42.565Z,86.17
2023-02-13T06:41:42.576Z,85.96
2023-02-13T06:42:42.560Z,85.96
2023-02-13T06:43:42.734Z,85.96
2023-02-13T06:44:42.534Z,86.17
2023-02-13T06:45:42.514Z,86.27
2023-02-13T06:46:42.600Z,86.58
2023-02-13T06:47:42.494Z,86.68
2023-02-13T06:48:42.492Z,86.27
2023-02-13T06:49:42.505Z,85.96
2023-02-13T06:50:42.483Z,85.86
2023-02-13T06:51:42.444Z,85.65
2023-02-13T06:52:42.437Z,85.55
2023-02-13T06:53:42.427Z,85.17
2023-02-13T06:54:47.754Z,85.06
2023-02-13T06:55:43.413Z,85.17
2023-02-13T06:56:42.397Z,84.75
2023-02-13T06:57:42.384Z,84.86
2023-02-13T06:58:42.369Z,84.96
2023-02-13T06:59:42.363Z,84.75
2023-02-13T07:00:42.369Z,84.96
2023-02-13T07:01:42.335Z,85.69
2023-02-13T07:02:42.366Z,86.52
2023-02-13T07:03:42.323Z,87.04
2023-02-13T07:04:42.306Z,87.30
2023-02-13T07:05:42.295Z,86.89
2023-02-13T07:06:42.306Z,86.47
2023-02-13T07:07:42.278Z,86.27
2023-02-13T07:08:42.257Z,86.07
2023-02-13T07:09:42.252Z,85.55
2023-02-13T07:10:42.248Z,85.34
2023-02-13T07:11:42.237Z,85.34
2023-02-13T07:12:42.234Z,84.72
2023-02-13T07:13:42.207Z,84.72
2023-02-13T07:14:42.187Z,85.55
2023-02-13T07:15:42.172Z,85.65
2023-02-13T07:16:42.166Z,86.07
2023-02-13T07:17:42.319Z,85.96
2023-02-13T07:18:42.151Z,85.86
2023-02-13T07:19:42.139Z,85.86
2023-02-13T07:20:42.112Z,85.61
2023-02-13T07:21:42.102Z,85.40
2023-02-13T07:22:42.103Z,85.30
2023-02-13T07:23:42.114Z,85.09
2023-02-13T07:24:42.083Z,84.88
2023-02-13T07:25:42.061Z,84.68
2023-02-13T07:26:42.063Z,84.68
2023-02-13T07:27:42.486Z,84.78
2023-02-13T07:28:42.078Z,84.68
2023-02-13T07:29:42.059Z,84.58
2023-02-13T07:30:42.068Z,85.09
2023-02-13T07:31:42.061Z,85.16
2023-02-13T07:32:41.981Z,85.16
2023-02-13T07:33:41.972Z,84.91
2023-02-13T07:34:55.873Z,84.63
2023-02-13T07:35:43.001Z,84.03
2023-02-13T07:36:41.934Z,83.19
2023-02-13T07:37:41.923Z,81.88
2023-02-13T07:38:41.925Z,80.88
2023-02-13T07:39:41.912Z,80.49
2023-02-13T07:40:41.916Z,78.78
2023-02-13T07:41:41.894Z,75.90
2023-02-13T07:42:41.868Z,75.66
2023-02-13T07:43:41.863Z,75.59
2023-02-13T07:44:41.845Z,74.19
2023-02-13T07:45:41.837Z,72.65
2023-02-13T07:46:41.884Z,69.65
2023-02-13T07:47:41.820Z,67.80
2023-02-13T07:48:41.805Z,69.24
2023-02-13T07:49:41.805Z,69.71
2023-02-13T07:50:41.775Z,68.08
2023-02-13T07:51:41.778Z,67.80
2023-02-13T07:52:41.794Z,68.52
2023-02-13T07:53:41.756Z,68.73
2023-02-13T07:54:41.737Z,67.49
2023-02-13T07:55:41.725Z,68.24
2023-02-13T07:56:41.715Z,68.14
2023-02-13T07:57:41.708Z,69.24
2023-02-13T07:58:41.705Z,68.59
2023-02-13T07:59:41.684Z,67.23
2023-02-13T08:00:41.681Z,67.02
2023-02-13T08:01:41.690Z,66.61
2023-02-13T08:02:41.646Z,67.43
2023-02-13T08:03:41.698Z,67.19
2023-02-13T08:04:41.626Z,65.56
2023-02-13T08:05:41.613Z,65.39
2023-02-13T08:06:41.606Z,66.31
2023-02-13T08:07:41.586Z,65.90
2023-02-13T08:08:41.591Z,66.00
2023-02-13T08:09:41.585Z,65.80
2023-02-13T08:10:41.546Z,66.10
2023-02-13T08:11:41.547Z,66.69
2023-02-13T08:12:41.539Z,66.55
2023-02-13T08:13:41.524Z,65.50
2023-02-13T08:14:41.506Z,66.18
2023-02-13T08:15:41.535Z,64.65
2023-02-13T08:16:41.560Z,64.93
2023-02-13T08:17:41.482Z,63.87
2023-02-13T08:18:41.452Z,63.64
2023-02-13T08:19:41.447Z,63.20
2023-02-13T08:20:41.535Z,62.97
2023-02-13T08:21:41.421Z,62.02
2023-02-13T08:22:41.410Z,61.59
2023-02-13T08:23:41.496Z,60.75
2023-02-13T08:24:41.400Z,60.08
2023-02-13T08:25:41.406Z,60.08
2023-02-13T08:26:41.392Z,59.24
2023-02-13T08:27:41.358Z,58.20
2023-02-13T08:28:41.475Z,56.87
2023-02-13T08:29:41.361Z,57.28
2023-02-13T08:30:41.366Z,56.57
2023-02-13T08:31:41.369Z,57.15
2023-02-13T08:32:53.440Z,56.62
2023-02-13T08:33:42.311Z,56.29
2023-02-13T08:34:41.281Z,56.49
2023-02-13T08:35:41.264Z,56.29
2023-02-13T08:36:41.240Z,57.17
2023-02-13T08:37:41.269Z,55.02
2023-02-13T08:39:41.220Z,55.73
2023-02-13T08:40:41.200Z,54.00
2023-02-13T08:41:41.220Z,54.92
2023-02-13T08:42:41.192Z,54.00
2023-02-13T08:43:41.220Z,54.13
2023-02-13T08:44:41.174Z,54.64
2023-02-13T08:45:41.198Z,55.35
2023-02-13T08:46:41.136Z,55.15
2023-02-13T08:47:41.138Z,55.63
2023-02-13T08:48:41.129Z,56.10
2023-02-13T08:49:41.140Z,56.31
2023-02-13T08:50:41.092Z,55.57
2023-02-13T08:51:41.121Z,55.52
2023-02-13T08:52:41.074Z,56.87
2023-02-13T08:53:41.082Z,56.51
2023-02-13T08:54:41.044Z,56.89
2023-02-13T08:55:41.083Z,56.26
2023-02-13T08:56:41.051Z,55.98
2023-02-13T08:57:41.035Z,56.31
2023-02-13T08:58:41.018Z,56.21
2023-02-13T08:59:40.992Z,57.15
2023-02-13T09:00:41.070Z,57.15
2023-02-13T09:01:41.046Z,56.87
2023-02-13T09:02:41.001Z,57.84
2023-02-13T09:03:40.954Z,59.39
2023-02-13T09:04:40.933Z,59.39
2023-02-13T09:05:40.981Z,59.69
2023-02-13T09:06:40.929Z,59.69
2023-02-13T09:07:40.909Z,59.99
2023-02-13T09:08:40.927Z,60.22
2023-02-13T09:09:40.863Z,60.02
2023-02-13T09:10:40.863Z,59.66
2023-02-13T09:11:40.845Z,59.56
2023-02-13T09:12:40.855Z,58.78
2023-02-13T09:13:40.826Z,59.48
2023-02-13T09:14:40.818Z,60.50
2023-02-13T09:15:40.831Z,59.59
2023-02-13T09:16:40.812Z,60.07
2023-02-13T09:17:40.779Z,59.12
2023-02-13T09:18:40.788Z,58.49
2023-02-13T09:19:40.756Z,57.98
2023-02-13T09:20:40.746Z,58.62
2023-02-13T09:21:40.727Z,57.98
2023-02-13T09:22:40.720Z,58.49
2023-02-13T09:23:40.713Z,58.42
2023-02-13T09:24:40.731Z,58.34
2023-02-13T09:25:40.697Z,58.01
2023-02-13T09:26:40.680Z,58.82
2023-02-13T09:27:40.667Z,59.00
2023-02-13T09:28:40.747Z,57.48
2023-02-13T09:29:40.654Z,57.78
2023-02-13T09:30:40.690Z,57.98
2023-02-13T09:31:40.689Z,56.97
2023-02-13T09:32:40.600Z,57.60
2023-02-13T09:33:40.591Z,57.81
2023-02-13T09:34:40.594Z,58.18
2023-02-13T09:35:40.586Z,57.65
2023-02-13T09:36:40.624Z,56.84
2023-02-13T09:37:40.552Z,57.29
2023-02-13T09:38:40.533Z,56.02
2023-02-13T09:39:40.543Z,54.44
2023-02-13T09:40:40.527Z,54.51
2023-02-13T09:41:40.515Z,55.02
2023-02-13T09:42:40.641Z,55.11
2023-02-13T09:43:40.483Z,54.11
2023-02-13T09:44:40.464Z,54.41
2023-02-13T09:45:40.463Z,53.78
2023-02-13T09:46:40.567Z,54.00
2023-02-13T09:47:40.505Z,54.33
2023-02-13T09:48:40.454Z,55.35
2023-02-13T09:49:40.414Z,53.90
2023-02-13T09:50:40.419Z,53.80
2023-02-13T09:51:40.384Z,55.30
2023-02-13T09:52:40.390Z,55.83
2023-02-13T09:53:40.385Z,56.64
2023-02-13T09:54:40.383Z,56.64
2023-02-13T09:55:40.343Z,57.33
2023-02-13T09:56:40.345Z,58.53
2023-02-13T09:57:40.383Z,59.91
2023-02-13T09:58:40.314Z,61.72
2023-02-13T09:59:40.293Z,63.61
2023-02-13T10:00:40.303Z,64.56
2023-02-13T10:01:40.359Z,65.37
2023-02-13T10:02:40.262Z,65.78
2023-02-13T10:03:40.252Z,65.17
2023-02-13T10:04:40.291Z,64.97
2023-02-13T10:05:40.251Z,65.58
2023-02-13T10:06:40.213Z,65.92
2023-02-13T10:07:40.204Z,66.33
2023-02-13T10:08:40.192Z,66.33
2023-02-13T10:09:40.196Z,66.42
2023-02-13T10:10:40.184Z,65.89
2023-02-13T10:11:40.188Z,65.37
2023-02-13T10:12:40.247Z,65.37
2023-02-13T10:13:40.135Z,65.45
2023-02-13T10:14:40.126Z,65.28
2023-02-13T10:15:40.163Z,65.28
2023-02-13T10:16:40.114Z,65.78
2023-02-13T10:17:40.112Z,65.61
2023-02-13T10:18:40.083Z,66.15
2023-02-13T10:19:40.073Z,66.33
2023-02-13T10:20:40.055Z,65.81
2023-02-13T10:21:40.042Z,65.37
2023-02-13T10:22:40.063Z,65.23
2023-02-13T10:23:40.027Z,66.15
2023-02-13T10:24:40.035Z,66.15
2023-02-13T10:25:39.994Z,66.56
2023-02-13T10:26:39.984Z,67.18
2023-02-13T10:27:39.976Z,66.59
2023-02-13T10:28:40.028Z,66.66
2023-02-13T10:29:39.961Z,66.97
2023-02-13T10:30:39.950Z,66.15
2023-02-13T10:31:40.087Z,66.25
2023-02-13T10:32:39.921Z,66.36
2023-02-13T10:33:39.903Z,66.05
2023-02-13T10:34:39.936Z,66.49
2023-02-13T10:35:39.884Z,66.56
2023-02-13T10:36:39.874Z,66.36
2023-02-13T10:37:39.867Z,66.46
2023-02-13T10:38:39.858Z,66.33
2023-02-13T10:39:39.836Z,65.78
2023-02-13T10:40:39.855Z,65.17
2023-02-13T10:41:39.826Z,65.07
2023-02-13T10:42:39.839Z,64.63
2023-02-13T10:43:39.806Z,63.95
2023-02-13T10:44:39.800Z,64.22
2023-02-13T10:45:39.833Z,64.84
2023-02-13T10:46:39.821Z,64.32
2023-02-13T10:47:39.756Z,64.15
2023-02-13T10:48:39.734Z,65.41
2023-02-13T10:49:39.737Z,66.12
2023-02-13T10:50:39.713Z,65.89
2023-02-13T10:51:39.737Z,65.25
2023-02-13T10:52:39.737Z,64.76
2023-02-13T10:53:39.687Z,65.48
2023-02-13T10:54:39.668Z,65.78
2023-02-13T10:55:46.687Z,66.06
2023-02-13T10:56:39.637Z,65.34
2023-02-13T10:57:39.657Z,65.31
2023-02-13T10:58:39.617Z,64.50
2023-02-13T10:59:39.606Z,63.86
2023-02-13T11:00:39.693Z,64.09
2023-02-13T11:01:39.636Z,64.43
2023-02-13T11:02:39.577Z,64.29
2023-02-13T11:03:39.576Z,64.26
2023-02-13T11:04:39.643Z,64.17
2023-02-13T11:05:39.542Z,64.06
2023-02-13T11:06:39.523Z,63.65
2023-02-13T11:07:39.691Z,64.20
2023-02-13T11:08:39.509Z,63.89
2023-02-13T11:09:39.510Z,63.89
2023-02-13T11:10:39.472Z,63.99
2023-02-13T11:11:39.462Z,63.86
2023-02-13T11:12:39.452Z,63.45
2023-02-13T11:13:39.451Z,62.92
2023-02-13T11:14:39.463Z,62.77
2023-02-13T11:15:39.465Z,63.38
2023-02-13T11:16:39.442Z,63.35
2023-02-13T11:17:39.391Z,63.56
2023-02-13T11:18:39.384Z,62.84
2023-02-13T11:19:39.378Z,63.04
2023-02-13T11:20:39.381Z,62.51
2023-02-13T11:21:39.352Z,63.24
2023-02-13T11:22:39.342Z,63.24
2023-02-13T11:23:39.322Z,63.12
2023-02-13T11:24:39.325Z,62.27
2023-02-13T11:25:39.303Z,61.53
2023-02-13T11:26:39.323Z,61.22
2023-02-13T11:27:39.292Z,61.46
2023-02-13T11:28:39.330Z,61.46
2023-02-13T11:29:39.282Z,61.66
2023-02-13T11:30:39.254Z,61.56
2023-02-13T11:31:39.425Z,61.56
2023-02-13T11:32:39.281Z,61.97
2023-02-13T11:33:39.209Z,61.56
2023-02-13T11:34:39.198Z,61.53
2023-02-13T11:35:39.201Z,61.74
2023-02-13T11:36:39.184Z,61.63
2023-02-13T11:37:39.163Z,61.53
2023-02-13T11:38:39.172Z,61.63
2023-02-13T11:39:39.144Z,61.63
2023-02-13T11:40:39.141Z,61.13
2023-02-13T11:41:39.122Z,61.22
2023-02-13T11:42:39.111Z,61.33
2023-02-13T11:43:39.121Z,60.89
2023-02-13T11:44:39.098Z,60.59
2023-02-13T11:45:39.076Z,61.25
2023-02-13T11:46:39.195Z,62.27
2023-02-13T11:47:39.049Z,61.76
2023-02-13T11:48:39.041Z,61.87
2023-02-13T11:49:39.070Z,62.27
2023-02-13T11:50:39.020Z,61.87
2023-02-13T11:51:39.000Z,62.61
2023-02-13T11:52:38.991Z,62.81
2023-02-13T11:53:38.986Z,63.12
2023-02-13T11:54:38.980Z,62.71
2023-02-13T11:55:38.987Z,62.98
2023-02-13T11:56:45.769Z,62.65
2023-02-13T11:57:39.935Z,62.14
2023-02-13T11:58:38.968Z,61.97
2023-02-13T11:59:38.914Z,61.79
2023-02-13T12:00:38.924Z,62.13
2023-02-13T12:01:38.887Z,62.54
2023-02-13T12:02:38.963Z,62.51
2023-02-13T12:03:38.944Z,62.40
2023-02-13T12:04:38.859Z,61.97
2023-02-13T12:05:38.996Z,61.74
2023-02-13T12:06:38.864Z,61.43
2023-02-13T12:07:38.828Z,61.43
2023-02-13T12:08:38.819Z,61.36
2023-02-13T12:09:38.806Z,61.63
2023-02-13T12:10:38.800Z,61.66
2023-02-13T12:11:38.788Z,61.76
2023-02-13T12:12:38.836Z,61.97
2023-02-13T12:13:38.769Z,61.87
2023-02-13T12:14:38.757Z,62.17
2023-02-13T12:15:38.733Z,61.53
2023-02-13T12:16:38.747Z,61.66
2023-02-13T12:17:38.711Z,61.43
2023-02-13T12:18:38.731Z,61.46
2023-02-13T12:19:38.688Z,61.18
2023-02-13T12:20:38.687Z,61.69
2023-02-13T12:21:38.666Z,62.10
2023-02-13T12:22:38.665Z,61.59
2023-02-13T12:23:38.670Z,61.46
2023-02-13T12:24:38.631Z,61.22
2023-02-13T12:25:38.627Z,61.02
2023-02-13T12:26:38.617Z,60.82
2023-02-13T12:27:38.601Z,60.82
2023-02-13T12:29:38.740Z,60.36
2023-02-13T12:30:38.592Z,60.05
2023-02-13T12:31:38.574Z,59.54
2023-02-13T12:32:38.547Z,59.27
2023-02-13T12:33:38.528Z,59.67
2023-02-13T12:34:38.554Z,60.18
2023-02-13T12:35:38.500Z,59.64
2023-02-13T12:36:38.497Z,58.86
2023-02-13T12:37:38.477Z,59.67
2023-02-13T12:38:38.476Z,59.16
2023-02-13T12:39:38.457Z,59.67
2023-02-13T12:40:38.480Z,59.67
2023-02-13T12:41:38.436Z,59.75
2023-02-13T12:42:38.428Z,59.21
2023-02-13T12:43:38.406Z,58.80
2023-02-13T12:44:38.398Z,58.70
2023-02-13T12:45:38.449Z,58.98
2023-02-13T12:46:39.884Z,58.70
2023-02-13T12:47:38.367Z,58.60
2023-02-13T12:48:38.357Z,58.20
2023-02-13T12:49:38.337Z,58.09
2023-02-13T12:50:38.343Z,58.63
2023-02-13T12:51:38.323Z,59.24
2023-02-13T12:52:38.324Z,59.72
2023-02-13T12:53:38.469Z,58.80
2023-02-13T12:54:38.287Z,58.73